sensor_id;sensor_type;location;lat;lon;timestamp;P1;P2;P0
54869;PMS5003;40756;-37.950;145.008;2023-01-24T00:01:28;7;7;
54869;PMS5003;40756;-37.950;145.008;2023-01-24T00:03:57;11;11;
54869;PMS5003;40756;-37.950;145.008;2023-01-24T00:06:27;10;10;
54869;PMS5003;40756;-37.950;145.008;2023-01-24T00:08:57;11;11;
54869;PMS5003;40756;-37.950;145.008;2023-01-24T00:11:26;22;21;
54869;PMS5003;40756;-37.950;145.008;2023-01-24T00:13:56;13;12;
54869;PMS5003;40756;-37.950;145.008;2023-01-24T00:16:25;13;13;
54869;PMS5003;40756;-37.950;145.008;2023-01-24T00:18:55;10;9;
54869;PMS5003;40756;-37.950;145.008;2023-01-24T00:21:24;13;13;
54869;PMS5003;40756;-37.950;145.008;2023-01-24T00:23:55;9;9;
54869;PMS5003;40756;-37.950;145.008;2023-01-24T00:26:24;8;8;
54869;PMS5003;40756;-37.950;145.008;2023-01-24T00:28:54;12;11;
54869;PMS5003;40756;-37.950;145.008;2023-01-24T00:31:23;12;12;
54869;PMS5003;40756;-37.950;145.008;2023-01-24T00:33:53;10;9;
54869;PMS5003;40756;-37.950;145.008;2023-01-24T00:36:22;9;9;
54869;PMS5003;40756;-37.950;145.008;2023-01-24T00:38:53;10;9;
54869;PMS5003;40756;-37.950;145.008;2023-01-24T00:41:23;10;8;
54869;PMS5003;40756;-37.950;145.008;2023-01-24T00:43:52;11;10;
54869;PMS5003;40756;-37.950;145.008;2023-01-24T00:46:21;7;7;
54869;PMS5003;40756;-37.950;145.008;2023-01-24T00:48:52;8;8;
54869;PMS5003;40756;-37.950;145.008;2023-01-24T00:51:21;7;6;
54869;PMS5003;40756;-37.950;145.008;2023-01-24T00:53:50;8;8;
54869;PMS5003;40756;-37.950;145.008;2023-01-24T00:56:20;8;8;
54869;PMS5003;40756;-37.950;145.008;2023-01-24T00:58:49;8;8;
54869;PMS5003;40756;-37.950;145.008;2023-01-24T01:01:19;8;8;
54869;PMS5003;40756;-37.950;145.008;2023-01-24T01:03:48;8;8;
54869;PMS5003;40756;-37.950;145.008;2023-01-24T01:06:21;8;8;
54869;PMS5003;40756;-37.950;145.008;2023-01-24T01:08:51;8;8;
54869;PMS5003;40756;-37.950;145.008;2023-01-24T01:11:21;5;5;
54869;PMS5003;40756;-37.950;145.008;2023-01-24T01:13:53;10;9;
54869;PMS5003;40756;-37.950;145.008;2023-01-24T01:16:24;8;8;
54869;PMS5003;40756;-37.950;145.008;2023-01-24T01:18:54;8;8;
54869;PMS5003;40756;-37.950;145.008;2023-01-24T01:21:24;8;8;
54869;PMS5003;40756;-37.950;145.008;2023-01-24T01:23:53;9;9;
54869;PMS5003;40756;-37.950;145.008;2023-01-24T01:26:24;6;6;
54869;PMS5003;40756;-37.950;145.008;2023-01-24T01:28:53;9;8;
54869;PMS5003;40756;-37.950;145.008;2023-01-24T01:31:23;9;9;
54869;PMS5003;40756;-37.950;145.008;2023-01-24T01:33:52;9;8;
54869;PMS5003;40756;-37.950;145.008;2023-01-24T01:36:21;7;7;
54869;PMS5003;40756;-37.950;145.008;2023-01-24T01:38:51;10;9;
54869;PMS5003;40756;-37.950;145.008;2023-01-24T01:41:20;8;8;
54869;PMS5003;40756;-37.950;145.008;2023-01-24T01:43:49;8;8;
54869;PMS5003;40756;-37.950;145.008;2023-01-24T01:46:19;8;7;
54869;PMS5003;40756;-37.950;145.008;2023-01-24T01:48:52;8;8;
54869;PMS5003;40756;-37.950;145.008;2023-01-24T01:51:25;9;9;
54869;PMS5003;40756;-37.950;145.008;2023-01-24T01:53:59;9;8;
54869;PMS5003;40756;-37.950;145.008;2023-01-24T01:56:32;13;13;
54869;PMS5003;40756;-37.950;145.008;2023-01-24T01:59:07;9;9;
54869;PMS5003;40756;-37.950;145.008;2023-01-24T02:01:42;10;9;
54869;PMS5003;40756;-37.950;145.008;2023-01-24T02:04:16;9;9;
54869;PMS5003;40756;-37.950;145.008;2023-01-24T02:06:50;7;7;
54869;PMS5003;40756;-37.950;145.008;2023-01-24T02:09:26;8;8;
54869;PMS5003;40756;-37.950;145.008;2023-01-24T02:12:01;11;10;
54869;PMS5003;40756;-37.950;145.008;2023-01-24T02:14:35;10;10;
54869;PMS5003;40756;-37.950;145.008;2023-01-24T02:17:05;8;8;
54869;PMS5003;40756;-37.950;145.008;2023-01-24T02:19:40;7;7;
54869;PMS5003;40756;-37.950;145.008;2023-01-24T02:22:22;7;7;
54869;PMS5003;40756;-37.950;145.008;2023-01-24T02:25:01;10;9;
54869;PMS5003;40756;-37.950;145.008;2023-01-24T02:27:39;6;6;
54869;PMS5003;40756;-37.950;145.008;2023-01-24T02:30:08;7;7;
54869;PMS5003;40756;-37.950;145.008;2023-01-24T02:32:39;12;12;
54869;PMS5003;40756;-37.950;145.008;2023-01-24T02:35:21;11;11;
54869;PMS5003;40756;-37.950;145.008;2023-01-24T02:37:52;10;9;
54869;PMS5003;40756;-37.950;145.008;2023-01-24T02:40:23;8;8;
54869;PMS5003;40756;-37.950;145.008;2023-01-24T02:42:54;8;8;
54869;PMS5003;40756;-37.950;145.008;2023-01-24T02:45:28;9;9;
54869;PMS5003;40756;-37.950;145.008;2023-01-24T02:48:05;11;11;
54869;PMS5003;40756;-37.950;145.008;2023-01-24T02:50:34;10;10;
54869;PMS5003;40756;-37.950;145.008;2023-01-24T02:53:04;7;7;
54869;PMS5003;40756;-37.950;145.008;2023-01-24T02:55:33;8;8;
54869;PMS5003;40756;-37.950;145.008;2023-01-24T02:58:03;9;9;
54869;PMS5003;40756;-37.950;145.008;2023-01-24T03:00:33;8;8;
54869;PMS5003;40756;-37.950;145.008;2023-01-24T03:03:05;9;8;
54869;PMS5003;40756;-37.950;145.008;2023-01-24T03:05:36;9;8;
54869;PMS5003;40756;-37.950;145.008;2023-01-24T03:08:06;9;9;
54869;PMS5003;40756;-37.950;145.008;2023-01-24T03:10:36;14;13;
54869;PMS5003;40756;-37.950;145.008;2023-01-24T03:13:05;8;8;
54869;PMS5003;40756;-37.950;145.008;2023-01-24T03:15:34;10;10;
54869;PMS5003;40756;-37.950;145.008;2023-01-24T03:18:03;24;23;
54869;PMS5003;40756;-37.950;145.008;2023-01-24T03:20:33;20;18;
54869;PMS5003;40756;-37.950;145.008;2023-01-24T03:23:02;11;11;
54869;PMS5003;40756;-37.950;145.008;2023-01-24T03:25:33;14;14;
54869;PMS5003;40756;-37.950;145.008;2023-01-24T03:28:03;8;8;
54869;PMS5003;40756;-37.950;145.008;2023-01-24T03:30:33;7;7;
54869;PMS5003;40756;-37.950;145.008;2023-01-24T03:33:02;8;8;
54869;PMS5003;40756;-37.950;145.008;2023-01-24T03:35:31;9;8;
54869;PMS5003;40756;-37.950;145.008;2023-01-24T03:38:01;8;8;
54869;PMS5003;40756;-37.950;145.008;2023-01-24T03:40:31;8;8;
54869;PMS5003;40756;-37.950;145.008;2023-01-24T03:43:01;8;8;
54869;PMS5003;40756;-37.950;145.008;2023-01-24T03:45:32;7;7;
54869;PMS5003;40756;-37.950;145.008;2023-01-24T03:48:04;7;7;
54869;PMS5003;40756;-37.950;145.008;2023-01-24T03:50:35;33;33;
54869;PMS5003;40756;-37.950;145.008;2023-01-24T03:53:05;73;73;
54869;PMS5003;40756;-37.950;145.008;2023-01-24T03:55:35;10;10;
54869;PMS5003;40756;-37.950;145.008;2023-01-24T03:58:05;18;18;
54869;PMS5003;40756;-37.950;145.008;2023-01-24T04:00:36;38;38;
54869;PMS5003;40756;-37.950;145.008;2023-01-24T04:03:06;14;14;
54869;PMS5003;40756;-37.950;145.008;2023-01-24T04:05:35;7;7;
54869;PMS5003;40756;-37.950;145.008;2023-01-24T04:08:05;7;7;
54869;PMS5003;40756;-37.950;145.008;2023-01-24T04:10:35;7;7;
54869;PMS5003;40756;-37.950;145.008;2023-01-24T04:13:05;7;7;
54869;PMS5003;40756;-37.950;145.008;2023-01-24T04:15:35;7;7;
54869;PMS5003;40756;-37.950;145.008;2023-01-24T04:18:05;4;4;
54869;PMS5003;40756;-37.950;145.008;2023-01-24T04:20:35;7;6;
54869;PMS5003;40756;-37.950;145.008;2023-01-24T04:23:05;10;8;
54869;PMS5003;40756;-37.950;145.008;2023-01-24T04:25:37;5;5;
54869;PMS5003;40756;-37.950;145.008;2023-01-24T04:28:06;8;8;
54869;PMS5003;40756;-37.950;145.008;2023-01-24T04:30:35;6;6;
54869;PMS5003;40756;-37.950;145.008;2023-01-24T04:33:05;8;7;
54869;PMS5003;40756;-37.950;145.008;2023-01-24T04:35:34;6;6;
54869;PMS5003;40756;-37.950;145.008;2023-01-24T04:38:04;9;9;
54869;PMS5003;40756;-37.950;145.008;2023-01-24T04:40:33;8;7;
54869;PMS5003;40756;-37.950;145.008;2023-01-24T04:43:03;9;9;
54869;PMS5003;40756;-37.950;145.008;2023-01-24T04:45:32;7;7;
54869;PMS5003;40756;-37.950;145.008;2023-01-24T04:48:01;3;3;
54869;PMS5003;40756;-37.950;145.008;2023-01-24T04:50:32;3;3;
54869;PMS5003;40756;-37.950;145.008;2023-01-24T04:53:01;9;9;
54869;PMS5003;40756;-37.950;145.008;2023-01-24T04:55:30;12;12;
54869;PMS5003;40756;-37.950;145.008;2023-01-24T04:58:02;9;8;
54869;PMS5003;40756;-37.950;145.008;2023-01-24T05:00:31;4;3;
54869;PMS5003;40756;-37.950;145.008;2023-01-24T05:03:00;5;4;
54869;PMS5003;40756;-37.950;145.008;2023-01-24T05:05:30;5;5;
54869;PMS5003;40756;-37.950;145.008;2023-01-24T05:07:59;8;7;
54869;PMS5003;40756;-37.950;145.008;2023-01-24T05:10:29;5;5;
54869;PMS5003;40756;-37.950;145.008;2023-01-24T05:12:58;4;4;
54869;PMS5003;40756;-37.950;145.008;2023-01-24T05:15:28;4;3;
54869;PMS5003;40756;-37.950;145.008;2023-01-24T05:17:58;5;5;
54869;PMS5003;40756;-37.950;145.008;2023-01-24T05:20:27;7;5;
54869;PMS5003;40756;-37.950;145.008;2023-01-24T05:22:57;4;4;
54869;PMS5003;40756;-37.950;145.008;2023-01-24T05:25:30;4;3;
54869;PMS5003;40756;-37.950;145.008;2023-01-24T05:28:01;8;8;
54869;PMS5003;40756;-37.950;145.008;2023-01-24T05:30:31;3;3;
54869;PMS5003;40756;-37.950;145.008;2023-01-24T05:33:00;25;24;
54869;PMS5003;40756;-37.950;145.008;2023-01-24T05:35:29;15;15;
54869;PMS5003;40756;-37.950;145.008;2023-01-24T05:38:00;34;33;
54869;PMS5003;40756;-37.950;145.008;2023-01-24T05:40:31;30;30;
54869;PMS5003;40756;-37.950;145.008;2023-01-24T05:43:00;6;5;
54869;PMS5003;40756;-37.950;145.008;2023-01-24T05:45:35;3;2;
54869;PMS5003;40756;-37.950;145.008;2023-01-24T05:48:05;2;2;
54869;PMS5003;40756;-37.950;145.008;2023-01-24T05:50:34;2;2;
54869;PMS5003;40756;-37.950;145.008;2023-01-24T05:53:03;4;3;
54869;PMS5003;40756;-37.950;145.008;2023-01-24T05:55:33;1;1;
54869;PMS5003;40756;-37.950;145.008;2023-01-24T05:58:02;2;2;
54869;PMS5003;40756;-37.950;145.008;2023-01-24T06:00:31;2;2;
54869;PMS5003;40756;-37.950;145.008;2023-01-24T06:03:01;1;1;
54869;PMS5003;40756;-37.950;145.008;2023-01-24T06:05:31;0;0;
54869;PMS5003;40756;-37.950;145.008;2023-01-24T06:08:00;2;1;
54869;PMS5003;40756;-37.950;145.008;2023-01-24T06:10:30;6;6;
54869;PMS5003;40756;-37.950;145.008;2023-01-24T06:12:59;17;17;
54869;PMS5003;40756;-37.950;145.008;2023-01-24T06:15:29;4;4;
54869;PMS5003;40756;-37.950;145.008;2023-01-24T06:17:58;1;1;
54869;PMS5003;40756;-37.950;145.008;2023-01-24T06:20:27;1;1;
54869;PMS5003;40756;-37.950;145.008;2023-01-24T06:22:59;1;1;
54869;PMS5003;40756;-37.950;145.008;2023-01-24T06:25:32;3;3;
54869;PMS5003;40756;-37.950;145.008;2023-01-24T06:28:03;4;3;
54869;PMS5003;40756;-37.950;145.008;2023-01-24T06:30:33;2;2;
54869;PMS5003;40756;-37.950;145.008;2023-01-24T06:33:10;3;2;
54869;PMS5003;40756;-37.950;145.008;2023-01-24T06:35:55;2;2;
54869;PMS5003;40756;-37.950;145.008;2023-01-24T06:38:42;1;1;
54869;PMS5003;40756;-37.950;145.008;2023-01-24T06:41:14;3;2;
54869;PMS5003;40756;-37.950;145.008;2023-01-24T06:43:45;3;3;
54869;PMS5003;40756;-37.950;145.008;2023-01-24T06:46:15;3;2;
54869;PMS5003;40756;-37.950;145.008;2023-01-24T06:48:45;29;29;
54869;PMS5003;40756;-37.950;145.008;2023-01-24T06:51:15;14;13;
54869;PMS5003;40756;-37.950;145.008;2023-01-24T06:53:44;13;13;
54869;PMS5003;40756;-37.950;145.008;2023-01-24T06:56:14;9;9;
54869;PMS5003;40756;-37.950;145.008;2023-01-24T06:58:43;6;6;
54869;PMS5003;40756;-37.950;145.008;2023-01-24T07:01:12;3;3;
54869;PMS5003;40756;-37.950;145.008;2023-01-24T07:03:42;2;2;
54869;PMS5003;40756;-37.950;145.008;2023-01-24T07:06:11;1;1;
54869;PMS5003;40756;-37.950;145.008;2023-01-24T07:08:41;1;1;
54869;PMS5003;40756;-37.950;145.008;2023-01-24T07:11:10;0;0;
54869;PMS5003;40756;-37.950;145.008;2023-01-24T07:13:39;2;2;
54869;PMS5003;40756;-37.950;145.008;2023-01-24T07:16:09;1;1;
54869;PMS5003;40756;-37.950;145.008;2023-01-24T07:18:39;2;2;
54869;PMS5003;40756;-37.950;145.008;2023-01-24T07:21:09;1;1;
54869;PMS5003;40756;-37.950;145.008;2023-01-24T07:23:39;2;2;
54869;PMS5003;40756;-37.950;145.008;2023-01-24T07:26:14;2;1;
54869;PMS5003;40756;-37.950;145.008;2023-01-24T07:28:45;2;2;
54869;PMS5003;40756;-37.950;145.008;2023-01-24T07:31:15;2;2;
54869;PMS5003;40756;-37.950;145.008;2023-01-24T07:33:45;0;0;
54869;PMS5003;40756;-37.950;145.008;2023-01-24T07:36:15;0;0;
54869;PMS5003;40756;-37.950;145.008;2023-01-24T07:38:45;2;2;
54869;PMS5003;40756;-37.950;145.008;2023-01-24T07:41:14;3;3;
54869;PMS5003;40756;-37.950;145.008;2023-01-24T07:43:44;3;3;
54869;PMS5003;40756;-37.950;145.008;2023-01-24T07:46:13;3;3;
54869;PMS5003;40756;-37.950;145.008;2023-01-24T07:48:43;4;4;
54869;PMS5003;40756;-37.950;145.008;2023-01-24T07:51:12;4;4;
54869;PMS5003;40756;-37.950;145.008;2023-01-24T07:53:42;3;3;
54869;PMS5003;40756;-37.950;145.008;2023-01-24T07:56:11;4;4;
54869;PMS5003;40756;-37.950;145.008;2023-01-24T07:58:42;4;4;
54869;PMS5003;40756;-37.950;145.008;2023-01-24T08:01:16;4;4;
54869;PMS5003;40756;-37.950;145.008;2023-01-24T08:03:46;4;4;
54869;PMS5003;40756;-37.950;145.008;2023-01-24T08:06:16;4;4;
54869;PMS5003;40756;-37.950;145.008;2023-01-24T08:08:46;3;3;
54869;PMS5003;40756;-37.950;145.008;2023-01-24T08:11:15;4;4;
54869;PMS5003;40756;-37.950;145.008;2023-01-24T08:13:44;2;2;
54869;PMS5003;40756;-37.950;145.008;2023-01-24T08:16:14;5;4;
54869;PMS5003;40756;-37.950;145.008;2023-01-24T08:18:43;5;4;
54869;PMS5003;40756;-37.950;145.008;2023-01-24T08:21:12;3;3;
54869;PMS5003;40756;-37.950;145.008;2023-01-24T08:23:42;4;4;
54869;PMS5003;40756;-37.950;145.008;2023-01-24T08:26:11;3;3;
54869;PMS5003;40756;-37.950;145.008;2023-01-24T08:28:40;2;2;
54869;PMS5003;40756;-37.950;145.008;2023-01-24T08:31:11;4;4;
54869;PMS5003;40756;-37.950;145.008;2023-01-24T08:33:41;3;3;
54869;PMS5003;40756;-37.950;145.008;2023-01-24T08:36:11;3;3;
54869;PMS5003;40756;-37.950;145.008;2023-01-24T08:38:41;3;3;
54869;PMS5003;40756;-37.950;145.008;2023-01-24T08:41:10;2;2;
54869;PMS5003;40756;-37.950;145.008;2023-01-24T08:43:39;3;3;
54869;PMS5003;40756;-37.950;145.008;2023-01-24T08:46:09;9;9;
54869;PMS5003;40756;-37.950;145.008;2023-01-24T08:48:38;7;7;
54869;PMS5003;40756;-37.950;145.008;2023-01-24T08:51:08;5;5;
54869;PMS5003;40756;-37.950;145.008;2023-01-24T08:53:37;5;5;
54869;PMS5003;40756;-37.950;145.008;2023-01-24T08:56:07;4;4;
54869;PMS5003;40756;-37.950;145.008;2023-01-24T08:58:36;3;3;
54869;PMS5003;40756;-37.950;145.008;2023-01-24T09:01:06;5;5;
54869;PMS5003;40756;-37.950;145.008;2023-01-24T09:03:36;6;5;
54869;PMS5003;40756;-37.950;145.008;2023-01-24T09:06:06;3;3;
54869;PMS5003;40756;-37.950;145.008;2023-01-24T09:08:35;4;3;
54869;PMS5003;40756;-37.950;145.008;2023-01-24T09:11:05;3;3;
54869;PMS5003;40756;-37.950;145.008;2023-01-24T09:13:34;3;3;
54869;PMS5003;40756;-37.950;145.008;2023-01-24T09:16:03;3;3;
54869;PMS5003;40756;-37.950;145.008;2023-01-24T09:18:33;4;4;
54869;PMS5003;40756;-37.950;145.008;2023-01-24T09:21:03;4;4;
54869;PMS5003;40756;-37.950;145.008;2023-01-24T09:23:33;3;2;
54869;PMS5003;40756;-37.950;145.008;2023-01-24T09:26:03;5;5;
54869;PMS5003;40756;-37.950;145.008;2023-01-24T09:28:33;4;3;
54869;PMS5003;40756;-37.950;145.008;2023-01-24T09:31:02;3;3;
54869;PMS5003;40756;-37.950;145.008;2023-01-24T09:33:36;2;2;
54869;PMS5003;40756;-37.950;145.008;2023-01-24T09:36:06;5;4;
54869;PMS5003;40756;-37.950;145.008;2023-01-24T09:38:36;3;3;
54869;PMS5003;40756;-37.950;145.008;2023-01-24T09:41:08;4;3;
54869;PMS5003;40756;-37.950;145.008;2023-01-24T09:43:47;4;4;
54869;PMS5003;40756;-37.950;145.008;2023-01-24T09:46:23;4;4;
54869;PMS5003;40756;-37.950;145.008;2023-01-24T09:49:00;4;4;
54869;PMS5003;40756;-37.950;145.008;2023-01-24T09:51:40;3;3;
54869;PMS5003;40756;-37.950;145.008;2023-01-24T09:54:17;3;3;
54869;PMS5003;40756;-37.950;145.008;2023-01-24T09:56:55;3;3;
54869;PMS5003;40756;-37.950;145.008;2023-01-24T09:59:29;3;3;
54869;PMS5003;40756;-37.950;145.008;2023-01-24T10:02:12;3;3;
54869;PMS5003;40756;-37.950;145.008;2023-01-24T10:04:45;3;3;
54869;PMS5003;40756;-37.950;145.008;2023-01-24T10:07:52;3;2;
54869;PMS5003;40756;-37.950;145.008;2023-01-24T10:10:36;3;3;
54869;PMS5003;40756;-37.950;145.008;2023-01-24T10:13:15;2;2;
54869;PMS5003;40756;-37.950;145.008;2023-01-24T10:16:04;2;2;
54869;PMS5003;40756;-37.950;145.008;2023-01-24T10:18:47;2;2;
54869;PMS5003;40756;-37.950;145.008;2023-01-24T10:21:33;3;3;
54869;PMS5003;40756;-37.950;145.008;2023-01-24T10:24:18;2;2;
54869;PMS5003;40756;-37.950;145.008;2023-01-24T10:26:52;4;4;
54869;PMS5003;40756;-37.950;145.008;2023-01-24T10:29:24;5;5;
54869;PMS5003;40756;-37.950;145.008;2023-01-24T10:31:58;6;6;
54869;PMS5003;40756;-37.950;145.008;2023-01-24T10:34:32;6;6;
54869;PMS5003;40756;-37.950;145.008;2023-01-24T10:37:06;8;7;
54869;PMS5003;40756;-37.950;145.008;2023-01-24T10:39:42;9;9;
54869;PMS5003;40756;-37.950;145.008;2023-01-24T10:42:16;15;14;
54869;PMS5003;40756;-37.950;145.008;2023-01-24T10:44:51;7;7;
54869;PMS5003;40756;-37.950;145.008;2023-01-24T10:47:33;6;6;
54869;PMS5003;40756;-37.950;145.008;2023-01-24T10:50:12;6;6;
54869;PMS5003;40756;-37.950;145.008;2023-01-24T10:52:43;6;6;
54869;PMS5003;40756;-37.950;145.008;2023-01-24T10:55:25;8;7;
54869;PMS5003;40756;-37.950;145.008;2023-01-24T10:57:59;5;5;
54869;PMS5003;40756;-37.950;145.008;2023-01-24T11:00:30;6;5;
54869;PMS5003;40756;-37.950;145.008;2023-01-24T11:03:03;7;7;
54869;PMS5003;40756;-37.950;145.008;2023-01-24T11:05:47;7;7;
54869;PMS5003;40756;-37.950;145.008;2023-01-24T11:08:20;5;5;
54869;PMS5003;40756;-37.950;145.008;2023-01-24T11:10:51;6;6;
54869;PMS5003;40756;-37.950;145.008;2023-01-24T11:13:28;6;5;
54869;PMS5003;40756;-37.950;145.008;2023-01-24T11:16:03;7;7;
54869;PMS5003;40756;-37.950;145.008;2023-01-24T11:18:47;6;6;
54869;PMS5003;40756;-37.950;145.008;2023-01-24T11:21:19;6;6;
54869;PMS5003;40756;-37.950;145.008;2023-01-24T11:23:59;7;7;
54869;PMS5003;40756;-37.950;145.008;2023-01-24T11:26:36;6;6;
54869;PMS5003;40756;-37.950;145.008;2023-01-24T11:29:18;6;6;
54869;PMS5003;40756;-37.950;145.008;2023-01-24T11:31:48;6;6;
54869;PMS5003;40756;-37.950;145.008;2023-01-24T11:34:24;6;6;
54869;PMS5003;40756;-37.950;145.008;2023-01-24T11:37:06;6;6;
54869;PMS5003;40756;-37.950;145.008;2023-01-24T11:39:51;5;5;
54869;PMS5003;40756;-37.950;145.008;2023-01-24T11:42:28;6;6;
54869;PMS5003;40756;-37.950;145.008;2023-01-24T11:45:11;8;8;
54869;PMS5003;40756;-37.950;145.008;2023-01-24T11:47:57;8;7;
54869;PMS5003;40756;-37.950;145.008;2023-01-24T11:50:37;8;7;
54869;PMS5003;40756;-37.950;145.008;2023-01-24T11:53:17;9;9;
54869;PMS5003;40756;-37.950;145.008;2023-01-24T11:56:01;6;6;
54869;PMS5003;40756;-37.950;145.008;2023-01-24T11:58:42;8;8;
54869;PMS5003;40756;-37.950;145.008;2023-01-24T12:01:28;7;7;
54869;PMS5003;40756;-37.950;145.008;2023-01-24T12:04:07;6;6;
54869;PMS5003;40756;-37.950;145.008;2023-01-24T12:06:57;6;6;
54869;PMS5003;40756;-37.950;145.008;2023-01-24T12:09:34;8;7;
54869;PMS5003;40756;-37.950;145.008;2023-01-24T12:12:13;7;7;
54869;PMS5003;40756;-37.950;145.008;2023-01-24T12:15:08;7;7;
54869;PMS5003;40756;-37.950;145.008;2023-01-24T12:17:59;5;5;
54869;PMS5003;40756;-37.950;145.008;2023-01-24T12:21:00;7;7;
54869;PMS5003;40756;-37.950;145.008;2023-01-24T12:23:35;8;8;
54869;PMS5003;40756;-37.950;145.008;2023-01-24T12:26:14;7;7;
54869;PMS5003;40756;-37.950;145.008;2023-01-24T12:28:51;8;8;
54869;PMS5003;40756;-37.950;145.008;2023-01-24T12:31:30;6;6;
54869;PMS5003;40756;-37.950;145.008;2023-01-24T12:34:12;8;8;
54869;PMS5003;40756;-37.950;145.008;2023-01-24T12:37:08;9;8;
54869;PMS5003;40756;-37.950;145.008;2023-01-24T12:39:52;6;6;
54869;PMS5003;40756;-37.950;145.008;2023-01-24T12:42:34;6;6;
54869;PMS5003;40756;-37.950;145.008;2023-01-24T12:45:16;6;6;
54869;PMS5003;40756;-37.950;145.008;2023-01-24T12:47:52;7;7;
54869;PMS5003;40756;-37.950;145.008;2023-01-24T12:50:27;7;7;
54869;PMS5003;40756;-37.950;145.008;2023-01-24T12:53:10;7;7;
54869;PMS5003;40756;-37.950;145.008;2023-01-24T12:55:49;5;5;
54869;PMS5003;40756;-37.950;145.008;2023-01-24T12:58:26;7;7;
54869;PMS5003;40756;-37.950;145.008;2023-01-24T13:01:07;6;5;
54869;PMS5003;40756;-37.950;145.008;2023-01-24T13:03:59;7;7;
54869;PMS5003;40756;-37.950;145.008;2023-01-24T13:06:42;8;7;
54869;PMS5003;40756;-37.950;145.008;2023-01-24T13:09:23;6;6;
54869;PMS5003;40756;-37.950;145.008;2023-01-24T13:11:58;6;6;
54869;PMS5003;40756;-37.950;145.008;2023-01-24T13:14:30;6;6;
54869;PMS5003;40756;-37.950;145.008;2023-01-24T13:17:40;5;5;
54869;PMS5003;40756;-37.950;145.008;2023-01-24T13:20:27;9;8;
54869;PMS5003;40756;-37.950;145.008;2023-01-24T13:23:13;5;5;
54869;PMS5003;40756;-37.950;145.008;2023-01-24T13:26:07;6;5;
54869;PMS5003;40756;-37.950;145.008;2023-01-24T13:27:22;6;5;
54869;PMS5003;40756;-37.950;145.008;2023-01-24T13:30:03;9;9;
54869;PMS5003;40756;-37.950;145.008;2023-01-24T13:32:46;8;7;
54869;PMS5003;40756;-37.950;145.008;2023-01-24T13:35:18;8;8;
54869;PMS5003;40756;-37.950;145.008;2023-01-24T13:37:51;7;7;
54869;PMS5003;40756;-37.950;145.008;2023-01-24T13:40:30;6;6;
54869;PMS5003;40756;-37.950;145.008;2023-01-24T13:43:01;6;5;
54869;PMS5003;40756;-37.950;145.008;2023-01-24T13:45:50;7;6;
54869;PMS5003;40756;-37.950;145.008;2023-01-24T13:48:55;10;9;
54869;PMS5003;40756;-37.950;145.008;2023-01-24T13:51:46;10;10;
54869;PMS5003;40756;-37.950;145.008;2023-01-24T13:54:20;8;8;
54869;PMS5003;40756;-37.950;145.008;2023-01-24T13:57:10;11;10;
54869;PMS5003;40756;-37.950;145.008;2023-01-24T14:00:25;8;8;
54869;PMS5003;40756;-37.950;145.008;2023-01-24T14:03:00;9;8;
54869;PMS5003;40756;-37.950;145.008;2023-01-24T14:05:43;11;10;
54869;PMS5003;40756;-37.950;145.008;2023-01-24T14:08:32;11;9;
54869;PMS5003;40756;-37.950;145.008;2023-01-24T14:11:52;12;10;
54869;PMS5003;40756;-37.950;145.008;2023-01-24T14:14:29;11;11;
54869;PMS5003;40756;-37.950;145.008;2023-01-24T14:17:03;10;9;
54869;PMS5003;40756;-37.950;145.008;2023-01-24T14:19:52;9;9;
54869;PMS5003;40756;-37.950;145.008;2023-01-24T14:22:30;13;13;
54869;PMS5003;40756;-37.950;145.008;2023-01-24T14:25:17;10;10;
54869;PMS5003;40756;-37.950;145.008;2023-01-24T14:28:13;10;10;
54869;PMS5003;40756;-37.950;145.008;2023-01-24T14:30:49;14;13;
54869;PMS5003;40756;-37.950;145.008;2023-01-24T14:33:27;13;13;
54869;PMS5003;40756;-37.950;145.008;2023-01-24T14:36:07;12;12;
54869;PMS5003;40756;-37.950;145.008;2023-01-24T14:39:18;16;14;
54869;PMS5003;40756;-37.950;145.008;2023-01-24T14:41:49;11;11;
54869;PMS5003;40756;-37.950;145.008;2023-01-24T14:44:21;15;14;
54869;PMS5003;40756;-37.950;145.008;2023-01-24T14:46:55;13;13;
54869;PMS5003;40756;-37.950;145.008;2023-01-24T14:49:27;12;12;
54869;PMS5003;40756;-37.950;145.008;2023-01-24T14:52:01;12;12;
54869;PMS5003;40756;-37.950;145.008;2023-01-24T14:54:43;17;17;
54869;PMS5003;40756;-37.950;145.008;2023-01-24T14:57:22;13;12;
54869;PMS5003;40756;-37.950;145.008;2023-01-24T15:00:01;14;12;
54869;PMS5003;40756;-37.950;145.008;2023-01-24T15:02:34;13;12;
54869;PMS5003;40756;-37.950;145.008;2023-01-24T15:05:14;15;14;
54869;PMS5003;40756;-37.950;145.008;2023-01-24T15:07:55;14;14;
54869;PMS5003;40756;-37.950;145.008;2023-01-24T15:10:28;13;12;
54869;PMS5003;40756;-37.950;145.008;2023-01-24T15:13:03;11;11;
54869;PMS5003;40756;-37.950;145.008;2023-01-24T15:15:37;12;12;
54869;PMS5003;40756;-37.950;145.008;2023-01-24T15:18:19;15;14;
54869;PMS5003;40756;-37.950;145.008;2023-01-24T15:21:00;13;13;
54869;PMS5003;40756;-37.950;145.008;2023-01-24T15:23:37;13;12;
54869;PMS5003;40756;-37.950;145.008;2023-01-24T15:26:31;14;14;
54869;PMS5003;40756;-37.950;145.008;2023-01-24T15:29:40;16;14;
54869;PMS5003;40756;-37.950;145.008;2023-01-24T15:32:26;14;14;
54869;PMS5003;40756;-37.950;145.008;2023-01-24T15:35:37;12;12;
54869;PMS5003;40756;-37.950;145.008;2023-01-24T15:38:13;14;14;
54869;PMS5003;40756;-37.950;145.008;2023-01-24T15:40:51;17;16;
54869;PMS5003;40756;-37.950;145.008;2023-01-24T15:43:25;15;15;
54869;PMS5003;40756;-37.950;145.008;2023-01-24T15:46:00;17;17;
54869;PMS5003;40756;-37.950;145.008;2023-01-24T15:48:29;15;15;
54869;PMS5003;40756;-37.950;145.008;2023-01-24T15:50:59;15;14;
54869;PMS5003;40756;-37.950;145.008;2023-01-24T15:53:29;19;19;
54869;PMS5003;40756;-37.950;145.008;2023-01-24T15:56:00;18;17;
54869;PMS5003;40756;-37.950;145.008;2023-01-24T15:58:33;19;18;
54869;PMS5003;40756;-37.950;145.008;2023-01-24T16:03:09;19;18;
54869;PMS5003;40756;-37.950;145.008;2023-01-24T16:05:38;23;20;
54869;PMS5003;40756;-37.950;145.008;2023-01-24T16:08:08;17;17;
54869;PMS5003;40756;-37.950;145.008;2023-01-24T16:10:37;21;20;
54869;PMS5003;40756;-37.950;145.008;2023-01-24T16:13:23;16;16;
54869;PMS5003;40756;-37.950;145.008;2023-01-24T16:15:57;21;18;
54869;PMS5003;40756;-37.950;145.008;2023-01-24T16:18:28;16;16;
54869;PMS5003;40756;-37.950;145.008;2023-01-24T16:20:57;16;16;
54869;PMS5003;40756;-37.950;145.008;2023-01-24T16:23:26;17;17;
54869;PMS5003;40756;-37.950;145.008;2023-01-24T16:25:56;18;18;
54869;PMS5003;40756;-37.950;145.008;2023-01-24T16:28:27;20;18;
54869;PMS5003;40756;-37.950;145.008;2023-01-24T16:31:01;15;15;
54869;PMS5003;40756;-37.950;145.008;2023-01-24T16:33:31;15;14;
54869;PMS5003;40756;-37.950;145.008;2023-01-24T16:36:01;14;14;
54869;PMS5003;40756;-37.950;145.008;2023-01-24T16:38:30;15;14;
54869;PMS5003;40756;-37.950;145.008;2023-01-24T16:41:04;16;15;